sensor_id;sensor_type;location;lat;lon;timestamp;P1;durP1;ratioP1;P2;durP2;ratioP2
72728;SDS011;60843;52.062;4.508;2022-11-12T00:00:37;29.88;;;13.55;;
72728;SDS011;60843;52.062;4.508;2022-11-12T00:03:03;30.42;;;14.65;;
72728;SDS011;60843;52.062;4.508;2022-11-12T00:05:29;30.30;;;14.00;;
72728;SDS011;60843;52.062;4.508;2022-11-12T00:07:55;29.08;;;14.32;;
72728;SDS011;60843;52.062;4.508;2022-11-12T00:10:21;28.13;;;13.88;;
72728;SDS011;60843;52.062;4.508;2022-11-12T00:12:46;35.55;;;15.32;;
72728;SDS011;60843;52.062;4.508;2022-11-12T00:15:12;28.50;;;13.82;;
72728;SDS011;60843;52.062;4.508;2022-11-12T00:17:37;31.90;;;14.82;;
72728;SDS011;60843;52.062;4.508;2022-11-12T00:20:03;27.10;;;13.63;;
72728;SDS011;60843;52.062;4.508;2022-11-12T00:22:29;26.48;;;12.80;;
72728;SDS011;60843;52.062;4.508;2022-11-12T00:24:55;26.85;;;13.63;;
72728;SDS011;60843;52.062;4.508;2022-11-12T00:27:20;27.17;;;14.30;;
72728;SDS011;60843;52.062;4.508;2022-11-12T00:29:46;24.90;;;12.95;;
72728;SDS011;60843;52.062;4.508;2022-11-12T00:32:11;29.92;;;13.68;;
72728;SDS011;60843;52.062;4.508;2022-11-12T00:34:36;27.20;;;14.18;;
72728;SDS011;60843;52.062;4.508;2022-11-12T00:37:02;29.58;;;14.45;;
72728;SDS011;60843;52.062;4.508;2022-11-12T00:39:28;25.20;;;13.40;;
72728;SDS011;60843;52.062;4.508;2022-11-12T00:41:53;26.95;;;14.82;;
72728;SDS011;60843;52.062;4.508;2022-11-12T00:44:19;30.13;;;15.35;;
72728;SDS011;60843;52.062;4.508;2022-11-12T00:46:44;29.67;;;15.75;;
72728;SDS011;60843;52.062;4.508;2022-11-12T00:49:10;31.42;;;15.93;;
72728;SDS011;60843;52.062;4.508;2022-11-12T00:51:35;35.28;;;17.20;;
72728;SDS011;60843;52.062;4.508;2022-11-12T00:54:01;31.08;;;16.00;;
72728;SDS011;60843;52.062;4.508;2022-11-12T00:56:27;38.17;;;17.45;;
72728;SDS011;60843;52.062;4.508;2022-11-12T00:58:52;32.63;;;15.80;;
72728;SDS011;60843;52.062;4.508;2022-11-12T01:01:18;34.20;;;16.40;;
72728;SDS011;60843;52.062;4.508;2022-11-12T01:03:44;32.85;;;17.05;;
72728;SDS011;60843;52.062;4.508;2022-11-12T01:06:14;34.40;;;16.70;;
72728;SDS011;60843;52.062;4.508;2022-11-12T01:08:41;32.65;;;17.00;;
72728;SDS011;60843;52.062;4.508;2022-11-12T01:11:10;33.03;;;17.00;;
72728;SDS011;60843;52.062;4.508;2022-11-12T01:13:39;35.60;;;17.75;;
72728;SDS011;60843;52.062;4.508;2022-11-12T01:16:11;35.90;;;17.15;;
72728;SDS011;60843;52.062;4.508;2022-11-12T01:18:36;32.40;;;17.13;;
72728;SDS011;60843;52.062;4.508;2022-11-12T01:21:03;37.75;;;18.63;;
72728;SDS011;60843;52.062;4.508;2022-11-12T01:23:33;35.95;;;18.05;;
72728;SDS011;60843;52.062;4.508;2022-11-12T01:26:03;36.03;;;18.38;;
72728;SDS011;60843;52.062;4.508;2022-11-12T01:28:29;36.00;;;18.30;;
72728;SDS011;60843;52.062;4.508;2022-11-12T01:30:54;34.78;;;17.10;;
72728;SDS011;60843;52.062;4.508;2022-11-12T01:33:20;33.08;;;17.20;;
72728;SDS011;60843;52.062;4.508;2022-11-12T01:35:45;33.03;;;17.35;;
72728;SDS011;60843;52.062;4.508;2022-11-12T01:38:11;34.25;;;17.55;;
72728;SDS011;60843;52.062;4.508;2022-11-12T01:40:36;33.75;;;17.10;;
72728;SDS011;60843;52.062;4.508;2022-11-12T01:43:02;31.23;;;16.63;;
72728;SDS011;60843;52.062;4.508;2022-11-12T01:45:28;33.25;;;17.13;;
72728;SDS011;60843;52.062;4.508;2022-11-12T01:47:54;34.80;;;17.17;;
72728;SDS011;60843;52.062;4.508;2022-11-12T01:53:03;37.55;;;18.67;;
72728;SDS011;60843;52.062;4.508;2022-11-12T01:55:33;34.42;;;17.83;;
72728;SDS011;60843;52.062;4.508;2022-11-12T01:58:08;35.65;;;17.95;;
72728;SDS011;60843;52.062;4.508;2022-11-12T02:00:35;39.33;;;18.45;;
72728;SDS011;60843;52.062;4.508;2022-11-12T02:03:02;42.25;;;19.52;;
72728;SDS011;60843;52.062;4.508;2022-11-12T02:05:32;40.35;;;19.33;;
72728;SDS011;60843;52.062;4.508;2022-11-12T02:07:58;41.05;;;19.98;;
72728;SDS011;60843;52.062;4.508;2022-11-12T02:10:24;41.60;;;19.52;;
72728;SDS011;60843;52.062;4.508;2022-11-12T02:12:51;37.78;;;18.33;;
72728;SDS011;60843;52.062;4.508;2022-11-12T02:15:36;42.95;;;19.85;;
72728;SDS011;60843;52.062;4.508;2022-11-12T02:18:02;44.97;;;19.40;;
72728;SDS011;60843;52.062;4.508;2022-11-12T02:20:31;43.72;;;19.98;;
72728;SDS011;60843;52.062;4.508;2022-11-12T02:23:00;42.55;;;19.83;;
72728;SDS011;60843;52.062;4.508;2022-11-12T02:25:26;47.65;;;20.55;;
72728;SDS011;60843;52.062;4.508;2022-11-12T02:27:52;44.42;;;20.40;;
72728;SDS011;60843;52.062;4.508;2022-11-12T02:30:22;47.88;;;21.00;;
72728;SDS011;60843;52.062;4.508;2022-11-12T02:33:04;41.13;;;19.65;;
72728;SDS011;60843;52.062;4.508;2022-11-12T02:35:30;43.85;;;20.30;;
72728;SDS011;60843;52.062;4.508;2022-11-12T02:37:56;45.72;;;21.10;;
72728;SDS011;60843;52.062;4.508;2022-11-12T02:40:21;47.40;;;21.38;;
72728;SDS011;60843;52.062;4.508;2022-11-12T02:42:47;45.88;;;21.35;;
72728;SDS011;60843;52.062;4.508;2022-11-12T02:45:13;46.65;;;19.77;;
72728;SDS011;60843;52.062;4.508;2022-11-12T02:47:39;43.67;;;20.30;;
72728;SDS011;60843;52.062;4.508;2022-11-12T02:50:04;45.88;;;20.10;;
72728;SDS011;60843;52.062;4.508;2022-11-12T02:52:30;43.53;;;20.08;;
72728;SDS011;60843;52.062;4.508;2022-11-12T02:54:56;45.47;;;19.88;;
72728;SDS011;60843;52.062;4.508;2022-11-12T02:57:22;44.08;;;19.30;;
72728;SDS011;60843;52.062;4.508;2022-11-12T02:59:48;46.13;;;19.52;;
72728;SDS011;60843;52.062;4.508;2022-11-12T03:02:13;44.72;;;20.65;;
72728;SDS011;60843;52.062;4.508;2022-11-12T03:04:39;42.28;;;19.88;;
72728;SDS011;60843;52.062;4.508;2022-11-12T03:07:04;42.07;;;20.10;;
72728;SDS011;60843;52.062;4.508;2022-11-12T03:09:29;42.55;;;19.17;;
72728;SDS011;60843;52.062;4.508;2022-11-12T03:11:55;42.70;;;20.08;;
72728;SDS011;60843;52.062;4.508;2022-11-12T03:14:21;43.33;;;20.27;;
72728;SDS011;60843;52.062;4.508;2022-11-12T03:16:46;45.13;;;19.52;;
72728;SDS011;60843;52.062;4.508;2022-11-12T03:21:40;45.65;;;20.52;;
72728;SDS011;60843;52.062;4.508;2022-11-12T03:24:06;46.97;;;21.10;;
72728;SDS011;60843;52.062;4.508;2022-11-12T03:26:32;40.00;;;19.15;;
72728;SDS011;60843;52.062;4.508;2022-11-12T03:28:57;47.58;;;19.20;;
72728;SDS011;60843;52.062;4.508;2022-11-12T03:31:23;47.27;;;21.23;;
72728;SDS011;60843;52.062;4.508;2022-11-12T03:33:48;42.13;;;19.88;;
72728;SDS011;60843;52.062;4.508;2022-11-12T03:36:14;43.63;;;19.45;;
72728;SDS011;60843;52.062;4.508;2022-11-12T03:38:39;49.60;;;20.52;;
72728;SDS011;60843;52.062;4.508;2022-11-12T03:41:05;50.03;;;22.07;;
72728;SDS011;60843;52.062;4.508;2022-11-12T03:43:30;46.53;;;20.13;;
72728;SDS011;60843;52.062;4.508;2022-11-12T03:45:56;50.25;;;19.92;;
72728;SDS011;60843;52.062;4.508;2022-11-12T03:48:21;45.75;;;20.70;;
72728;SDS011;60843;52.062;4.508;2022-11-12T03:50:47;46.05;;;19.50;;
72728;SDS011;60843;52.062;4.508;2022-11-12T03:53:12;43.15;;;19.92;;
72728;SDS011;60843;52.062;4.508;2022-11-12T03:55:38;46.97;;;19.55;;
72728;SDS011;60843;52.062;4.508;2022-11-12T03:58:04;53.25;;;20.63;;
72728;SDS011;60843;52.062;4.508;2022-11-12T04:00:29;52.63;;;19.27;;
72728;SDS011;60843;52.062;4.508;2022-11-12T04:02:55;47.85;;;18.55;;
72728;SDS011;60843;52.062;4.508;2022-11-12T04:05:22;46.20;;;19.13;;
72728;SDS011;60843;52.062;4.508;2022-11-12T04:08:09;45.08;;;18.50;;
72728;SDS011;60843;52.062;4.508;2022-11-12T04:10:57;45.60;;;18.70;;
72728;SDS011;60843;52.062;4.508;2022-11-12T04:13:22;43.42;;;19.45;;
72728;SDS011;60843;52.062;4.508;2022-11-12T04:18:49;45.30;;;17.58;;
72728;SDS011;60843;52.062;4.508;2022-11-12T04:21:38;43.10;;;17.95;;
72728;SDS011;60843;52.062;4.508;2022-11-12T04:27:07;43.20;;;17.52;;
72728;SDS011;60843;52.062;4.508;2022-11-12T04:29:34;38.53;;;16.52;;
72728;SDS011;60843;52.062;4.508;2022-11-12T04:32:18;36.80;;;17.23;;
72728;SDS011;60843;52.062;4.508;2022-11-12T04:34:44;40.80;;;16.83;;
72728;SDS011;60843;52.062;4.508;2022-11-12T04:37:09;34.22;;;15.38;;
72728;SDS011;60843;52.062;4.508;2022-11-12T04:39:35;37.58;;;17.10;;
72728;SDS011;60843;52.062;4.508;2022-11-12T04:42:00;37.17;;;16.85;;
72728;SDS011;60843;52.062;4.508;2022-11-12T04:44:44;38.60;;;16.48;;
72728;SDS011;60843;52.062;4.508;2022-11-12T04:50:12;34.88;;;16.20;;
72728;SDS011;60843;52.062;4.508;2022-11-12T04:52:39;31.33;;;16.33;;
72728;SDS011;60843;52.062;4.508;2022-11-12T04:55:04;35.28;;;17.23;;
72728;SDS011;60843;52.062;4.508;2022-11-12T04:57:30;36.92;;;16.73;;
72728;SDS011;60843;52.062;4.508;2022-11-12T04:59:56;38.17;;;17.02;;
72728;SDS011;60843;52.062;4.508;2022-11-12T05:02:21;39.65;;;16.58;;
72728;SDS011;60843;52.062;4.508;2022-11-12T05:04:47;36.65;;;16.13;;
72728;SDS011;60843;52.062;4.508;2022-11-12T05:07:12;38.95;;;17.15;;
72728;SDS011;60843;52.062;4.508;2022-11-12T05:09:38;41.35;;;17.13;;
72728;SDS011;60843;52.062;4.508;2022-11-12T05:12:04;43.90;;;16.48;;
72728;SDS011;60843;52.062;4.508;2022-11-12T05:14:30;36.50;;;15.88;;
72728;SDS011;60843;52.062;4.508;2022-11-12T05:16:55;43.70;;;16.67;;
72728;SDS011;60843;52.062;4.508;2022-11-12T05:19:21;47.65;;;16.88;;
72728;SDS011;60843;52.062;4.508;2022-11-12T05:21:46;37.63;;;16.47;;
72728;SDS011;60843;52.062;4.508;2022-11-12T05:24:34;46.67;;;16.60;;
72728;SDS011;60843;52.062;4.508;2022-11-12T05:27:01;45.88;;;15.40;;
72728;SDS011;60843;52.062;4.508;2022-11-12T05:29:26;76.90;;;15.95;;
72728;SDS011;60843;52.062;4.508;2022-11-12T05:31:52;54.17;;;15.35;;
72728;SDS011;60843;52.062;4.508;2022-11-12T05:34:17;83.50;;;15.85;;
72728;SDS011;60843;52.062;4.508;2022-11-12T05:36:43;73.38;;;16.65;;
72728;SDS011;60843;52.062;4.508;2022-11-12T05:39:08;88.03;;;18.02;;
72728;SDS011;60843;52.062;4.508;2022-11-12T05:41:34;88.13;;;16.50;;
72728;SDS011;60843;52.062;4.508;2022-11-12T05:43:59;88.55;;;18.55;;
72728;SDS011;60843;52.062;4.508;2022-11-12T05:46:24;65.13;;;14.23;;
72728;SDS011;60843;52.062;4.508;2022-11-12T05:48:50;69.95;;;15.18;;
72728;SDS011;60843;52.062;4.508;2022-11-12T05:51:16;84.72;;;15.52;;
72728;SDS011;60843;52.062;4.508;2022-11-12T05:53:41;83.13;;;16.55;;
72728;SDS011;60843;52.062;4.508;2022-11-12T05:56:07;95.30;;;14.68;;
72728;SDS011;60843;52.062;4.508;2022-11-12T05:58:34;112.07;;;15.82;;
72728;SDS011;60843;52.062;4.508;2022-11-12T06:01:00;68.53;;;15.82;;
72728;SDS011;60843;52.062;4.508;2022-11-12T06:03:26;102.63;;;14.52;;
72728;SDS011;60843;52.062;4.508;2022-11-12T06:05:52;49.95;;;14.18;;
72728;SDS011;60843;52.062;4.508;2022-11-12T06:08:17;64.88;;;12.88;;
72728;SDS011;60843;52.062;4.508;2022-11-12T06:10:52;47.97;;;14.18;;
72728;SDS011;60843;52.062;4.508;2022-11-12T06:13:19;74.20;;;13.73;;
72728;SDS011;60843;52.062;4.508;2022-11-12T06:15:45;49.70;;;13.40;;
72728;SDS011;60843;52.062;4.508;2022-11-12T06:18:10;44.20;;;13.90;;
72728;SDS011;60843;52.062;4.508;2022-11-12T06:20:36;46.95;;;14.05;;
72728;SDS011;60843;52.062;4.508;2022-11-12T06:23:02;42.63;;;12.85;;
72728;SDS011;60843;52.062;4.508;2022-11-12T06:25:28;28.05;;;11.98;;
72728;SDS011;60843;52.062;4.508;2022-11-12T06:27:53;22.77;;;11.97;;
72728;SDS011;60843;52.062;4.508;2022-11-12T06:30:19;27.98;;;11.18;;
72728;SDS011;60843;52.062;4.508;2022-11-12T06:32:45;31.23;;;11.73;;
72728;SDS011;60843;52.062;4.508;2022-11-12T06:35:11;40.20;;;12.00;;
72728;SDS011;60843;52.062;4.508;2022-11-12T06:37:36;25.40;;;11.73;;
72728;SDS011;60843;52.062;4.508;2022-11-12T06:40:02;23.90;;;11.60;;
72728;SDS011;60843;52.062;4.508;2022-11-12T06:42:27;26.73;;;11.43;;
72728;SDS011;60843;52.062;4.508;2022-11-12T06:44:53;27.50;;;12.07;;
72728;SDS011;60843;52.062;4.508;2022-11-12T06:47:18;22.67;;;12.13;;
72728;SDS011;60843;52.062;4.508;2022-11-12T06:49:43;20.33;;;11.63;;
72728;SDS011;60843;52.062;4.508;2022-11-12T06:52:09;19.33;;;11.33;;
72728;SDS011;60843;52.062;4.508;2022-11-12T06:54:34;23.43;;;12.00;;
72728;SDS011;60843;52.062;4.508;2022-11-12T06:56:59;20.20;;;12.40;;
72728;SDS011;60843;52.062;4.508;2022-11-12T06:59:25;22.70;;;12.52;;
72728;SDS011;60843;52.062;4.508;2022-11-12T07:01:50;20.83;;;11.80;;
72728;SDS011;60843;52.062;4.508;2022-11-12T07:04:16;21.50;;;11.70;;
72728;SDS011;60843;52.062;4.508;2022-11-12T07:06:41;21.95;;;12.52;;
72728;SDS011;60843;52.062;4.508;2022-11-12T07:09:07;24.90;;;12.67;;
72728;SDS011;60843;52.062;4.508;2022-11-12T07:11:32;19.95;;;11.80;;
72728;SDS011;60843;52.062;4.508;2022-11-12T07:13:57;21.53;;;12.13;;
72728;SDS011;60843;52.062;4.508;2022-11-12T07:16:23;19.13;;;12.27;;
72728;SDS011;60843;52.062;4.508;2022-11-12T07:18:48;21.67;;;12.27;;
72728;SDS011;60843;52.062;4.508;2022-11-12T07:21:18;19.15;;;11.32;;
72728;SDS011;60843;52.062;4.508;2022-11-12T07:23:44;17.73;;;10.75;;
72728;SDS011;60843;52.062;4.508;2022-11-12T07:26:14;19.55;;;10.98;;
72728;SDS011;60843;52.062;4.508;2022-11-12T07:28:45;17.83;;;10.45;;
72728;SDS011;60843;52.062;4.508;2022-11-12T07:31:11;18.55;;;11.35;;
72728;SDS011;60843;52.062;4.508;2022-11-12T07:33:38;17.15;;;10.80;;
72728;SDS011;60843;52.062;4.508;2022-11-12T07:36:07;19.60;;;11.38;;
72728;SDS011;60843;52.062;4.508;2022-11-12T07:38:35;19.05;;;10.98;;
72728;SDS011;60843;52.062;4.508;2022-11-12T07:41:06;16.27;;;10.48;;
72728;SDS011;60843;52.062;4.508;2022-11-12T07:43:33;17.52;;;10.30;;
72728;SDS011;60843;52.062;4.508;2022-11-12T07:46:00;15.73;;;9.70;;
72728;SDS011;60843;52.062;4.508;2022-11-12T07:48:31;16.77;;;9.82;;
72728;SDS011;60843;52.062;4.508;2022-11-12T07:51:00;16.10;;;10.18;;
72728;SDS011;60843;52.062;4.508;2022-11-12T07:53:27;13.38;;;9.23;;
72728;SDS011;60843;52.062;4.508;2022-11-12T07:55:54;15.93;;;10.15;;
72728;SDS011;60843;52.062;4.508;2022-11-12T07:58:20;14.00;;;9.40;;
72728;SDS011;60843;52.062;4.508;2022-11-12T08:00:45;14.07;;;9.00;;
72728;SDS011;60843;52.062;4.508;2022-11-12T08:03:11;14.43;;;9.30;;
72728;SDS011;60843;52.062;4.508;2022-11-12T08:05:36;16.13;;;9.03;;
72728;SDS011;60843;52.062;4.508;2022-11-12T08:08:01;15.73;;;9.80;;
72728;SDS011;60843;52.062;4.508;2022-11-12T08:10:27;14.77;;;8.57;;
72728;SDS011;60843;52.062;4.508;2022-11-12T08:12:54;13.83;;;9.23;;
72728;SDS011;60843;52.062;4.508;2022-11-12T08:15:20;13.02;;;9.13;;
72728;SDS011;60843;52.062;4.508;2022-11-12T08:17:45;13.48;;;8.60;;
72728;SDS011;60843;52.062;4.508;2022-11-12T08:20:11;13.23;;;9.27;;
72728;SDS011;60843;52.062;4.508;2022-11-12T08:22:37;14.32;;;8.82;;
72728;SDS011;60843;52.062;4.508;2022-11-12T08:25:02;14.90;;;8.87;;
72728;SDS011;60843;52.062;4.508;2022-11-12T08:27:27;14.40;;;9.02;;
72728;SDS011;60843;52.062;4.508;2022-11-12T08:29:53;14.20;;;9.50;;
72728;SDS011;60843;52.062;4.508;2022-11-12T08:32:18;14.25;;;8.98;;
72728;SDS011;60843;52.062;4.508;2022-11-12T08:34:43;17.83;;;9.20;;
72728;SDS011;60843;52.062;4.508;2022-11-12T08:37:09;15.98;;;9.18;;
72728;SDS011;60843;52.062;4.508;2022-11-12T08:39:34;15.17;;;8.43;;
72728;SDS011;60843;52.062;4.508;2022-11-12T08:42:00;14.40;;;9.47;;
72728;SDS011;60843;52.062;4.508;2022-11-12T08:44:25;14.63;;;8.05;;
72728;SDS011;60843;52.062;4.508;2022-11-12T08:46:51;13.60;;;8.73;;
72728;SDS011;60843;52.062;4.508;2022-11-12T08:49:16;15.18;;;9.32;;
72728;SDS011;60843;52.062;4.508;2022-11-12T08:51:41;17.27;;;9.33;;
72728;SDS011;60843;52.062;4.508;2022-11-12T08:54:07;16.90;;;8.77;;
72728;SDS011;60843;52.062;4.508;2022-11-12T08:56:32;16.27;;;9.63;;
72728;SDS011;60843;52.062;4.508;2022-11-12T08:58:58;13.48;;;7.75;;
72728;SDS011;60843;52.062;4.508;2022-11-12T09:01:23;18.42;;;8.85;;
72728;SDS011;60843;52.062;4.508;2022-11-12T09:03:49;14.40;;;8.37;;
72728;SDS011;60843;52.062;4.508;2022-11-12T09:06:14;15.23;;;9.40;;
72728;SDS011;60843;52.062;4.508;2022-11-12T09:08:40;16.17;;;8.90;;
72728;SDS011;60843;52.062;4.508;2022-11-12T09:11:05;13.88;;;8.23;;
72728;SDS011;60843;52.062;4.508;2022-11-12T09:13:30;13.23;;;8.13;;
72728;SDS011;60843;52.062;4.508;2022-11-12T09:16:03;14.65;;;7.80;;
72728;SDS011;60843;52.062;4.508;2022-11-12T09:18:30;12.77;;;8.15;;
72728;SDS011;60843;52.062;4.508;2022-11-12T09:21:06;13.93;;;8.02;;
72728;SDS011;60843;52.062;4.508;2022-11-12T09:23:33;13.63;;;8.02;;
72728;SDS011;60843;52.062;4.508;2022-11-12T09:25:59;14.30;;;8.70;;
72728;SDS011;60843;52.062;4.508;2022-11-12T09:28:25;13.48;;;8.45;;
72728;SDS011;60843;52.062;4.508;2022-11-12T09:30:51;13.60;;;8.45;;
72728;SDS011;60843;52.062;4.508;2022-11-12T09:33:18;12.32;;;8.20;;
72728;SDS011;60843;52.062;4.508;2022-11-12T09:35:47;14.07;;;7.78;;
72728;SDS011;60843;52.062;4.508;2022-11-12T09:38:13;11.50;;;8.02;;
72728;SDS011;60843;52.062;4.508;2022-11-12T09:43:20;13.93;;;7.97;;
72728;SDS011;60843;52.062;4.508;2022-11-12T09:45:50;12.60;;;7.85;;
72728;SDS011;60843;52.062;4.508;2022-11-12T09:48:21;13.15;;;7.97;;
72728;SDS011;60843;52.062;4.508;2022-11-12T09:50:57;15.77;;;8.65;;
72728;SDS011;60843;52.062;4.508;2022-11-12T09:56:09;14.35;;;9.10;;
72728;SDS011;60843;52.062;4.508;2022-11-12T09:58:37;13.50;;;8.70;;
72728;SDS011;60843;52.062;4.508;2022-11-12T10:01:14;16.05;;;9.70;;
72728;SDS011;60843;52.062;4.508;2022-11-12T10:04:02;16.58;;;8.85;;
72728;SDS011;60843;52.062;4.508;2022-11-12T10:10:32;11.90;;;8.10;;
72728;SDS011;60843;52.062;4.508;2022-11-12T10:18:15;13.57;;;8.70;;
72728;SDS011;60843;52.062;4.508;2022-11-12T10:23:20;12.10;;;8.23;;
72728;SDS011;60843;52.062;4.508;2022-11-12T10:25:49;14.05;;;7.97;;
72728;SDS011;60843;52.062;4.508;2022-11-12T10:28:37;11.25;;;7.70;;
72728;SDS011;60843;52.062;4.508;2022-11-12T10:31:14;12.55;;;7.72;;
72728;SDS011;60843;52.062;4.508;2022-11-12T10:33:42;14.25;;;7.97;;
72728;SDS011;60843;52.062;4.508;2022-11-12T10:38:49;11.75;;;7.55;;
72728;SDS011;60843;52.062;4.508;2022-11-12T10:41:19;16.52;;;8.30;;
72728;SDS011;60843;52.062;4.508;2022-11-12T10:43:54;12.80;;;7.18;;
72728;SDS011;60843;52.062;4.508;2022-11-12T10:46:23;13.95;;;7.82;;
72728;SDS011;60843;52.062;4.508;2022-11-12T10:48:55;13.60;;;8.43;;
72728;SDS011;60843;52.062;4.508;2022-11-12T10:51:23;13.45;;;6.78;;
72728;SDS011;60843;52.062;4.508;2022-11-12T10:53:51;10.50;;;7.40;;
72728;SDS011;60843;52.062;4.508;2022-11-12T10:56:24;13.38;;;6.82;;
72728;SDS011;60843;52.062;4.508;2022-11-12T10:59:16;10.93;;;6.85;;
72728;SDS011;60843;52.062;4.508;2022-11-12T11:01:44;12.18;;;7.20;;
72728;SDS011;60843;52.062;4.508;2022-11-12T11:04:43;12.13;;;7.20;;
72728;SDS011;60843;52.062;4.508;2022-11-12T11:07:21;11.82;;;7.40;;
72728;SDS011;60843;52.062;4.508;2022-11-12T11:12:27;9.88;;;6.53;;
72728;SDS011;60843;52.062;4.508;2022-11-12T11:15:04;11.82;;;6.50;;
72728;SDS011;60843;52.062;4.508;2022-11-12T11:19:56;9.30;;;5.63;;
72728;SDS011;60843;52.062;4.508;2022-11-12T11:22:27;8.05;;;5.50;;
72728;SDS011;60843;52.062;4.508;2022-11-12T11:30:58;9.40;;;5.97;;
72728;SDS011;60843;52.062;4.508;2022-11-12T11:38:50;8.18;;;4.53;;
72728;SDS011;60843;52.062;4.508;2022-11-12T11:41:49;8.65;;;5.22;;
72728;SDS011;60843;52.062;4.508;2022-11-12T11:44:37;11.57;;;5.53;;
72728;SDS011;60843;52.062;4.508;2022-11-12T11:57:58;6.90;;;4.18;;
72728;SDS011;60843;52.062;4.508;2022-11-12T12:18:00;5.32;;;3.63;;
72728;SDS011;60843;52.062;4.508;2022-11-12T12:20:53;7.45;;;4.30;;
72728;SDS011;60843;52.062;4.508;2022-11-12T12:26:18;7.55;;;4.50;;
72728;SDS011;60843;52.062;4.508;2022-11-12T12:29:27;8.90;;;4.78;;
72728;SDS011;60843;52.062;4.508;2022-11-12T12:31:52;11.05;;;5.10;;
72728;SDS011;60843;52.062;4.508;2022-11-12T12:37:05;9.25;;;5.55;;
72728;SDS011;60843;52.062;4.508;2022-11-12T12:42:23;10.15;;;4.38;;
72728;SDS011;60843;52.062;4.508;2022-11-12T12:44:57;8.45;;;4.68;;
72728;SDS011;60843;52.062;4.508;2022-11-12T12:47:24;6.50;;;4.47;;
72728;SDS011;60843;52.062;4.508;2022-11-12T12:49:50;7.32;;;4.60;;
72728;SDS011;60843;52.062;4.508;2022-11-12T12:52:16;7.95;;;4.30;;
72728;SDS011;60843;52.062;4.508;2022-11-12T12:57:27;8.93;;;4.05;;
72728;SDS011;60843;52.062;4.508;2022-11-12T13:00:23;5.57;;;3.90;;
72728;SDS011;60843;52.062;4.508;2022-11-12T13:03:04;8.27;;;4.10;;
72728;SDS011;60843;52.062;4.508;2022-11-12T13:05:34;5.90;;;4.13;;
72728;SDS011;60843;52.062;4.508;2022-11-12T13:08:10;9.20;;;4.10;;
72728;SDS011;60843;52.062;4.508;2022-11-12T13:15:41;10.97;;;4.10;;
72728;SDS011;60843;52.062;4.508;2022-11-12T13:18:11;7.50;;;4.07;;
72728;SDS011;60843;52.062;4.508;2022-11-12T13:21:21;7.53;;;3.97;;
72728;SDS011;60843;52.062;4.508;2022-11-12T13:23:47;7.00;;;4.28;;
72728;SDS011;60843;52.062;4.508;2022-11-12T13:26:48;7.75;;;4.00;;
72728;SDS011;60843;52.062;4.508;2022-11-12T13:29:24;6.90;;;4.72;;
72728;SDS011;60843;52.062;4.508;2022-11-12T13:37:46;5.82;;;3.22;;
72728;SDS011;60843;52.062;4.508;2022-11-12T13:40:13;5.45;;;3.22;;
72728;SDS011;60843;52.062;4.508;2022-11-12T13:42:40;5.78;;;3.22;;
72728;SDS011;60843;52.062;4.508;2022-11-12T13:45:15;4.97;;;3.30;;
72728;SDS011;60843;52.062;4.508;2022-11-12T13:47:41;6.07;;;3.53;;
72728;SDS011;60843;52.062;4.508;2022-11-12T13:50:08;7.38;;;3.80;;
72728;SDS011;60843;52.062;4.508;2022-11-12T13:52:38;4.78;;;3.03;;
72728;SDS011;60843;52.062;4.508;2022-11-12T13:55:05;7.65;;;3.50;;
72728;SDS011;60843;52.062;4.508;2022-11-12T13:57:37;5.00;;;2.85;;
72728;SDS011;60843;52.062;4.508;2022-11-12T14:00:10;6.57;;;2.83;;
72728;SDS011;60843;52.062;4.508;2022-11-12T14:02:45;5.15;;;3.45;;
72728;SDS011;60843;52.062;4.508;2022-11-12T14:05:15;6.43;;;3.47;;
72728;SDS011;60843;52.062;4.508;2022-11-12T14:10:22;6.97;;;3.15;;
72728;SDS011;60843;52.062;4.508;2022-11-12T14:13:11;4.95;;;3.10;;
72728;SDS011;60843;52.062;4.508;2022-11-12T14:21:22;4.28;;;3.25;;
72728;SDS011;60843;52.062;4.508;2022-11-12T14:23:48;4.87;;;3.00;;
72728;SDS011;60843;52.062;4.508;2022-11-12T14:26:31;3.63;;;2.80;;
72728;SDS011;60843;52.062;4.508;2022-11-12T14:29:01;10.07;;;3.20;;
72728;SDS011;60843;52.062;4.508;2022-11-12T14:31:27;6.10;;;3.33;;
72728;SDS011;60843;52.062;4.508;2022-11-12T14:33:52;5.07;;;3.17;;
72728;SDS011;60843;52.062;4.508;2022-11-12T14:36:17;5.40;;;3.43;;
72728;SDS011;60843;52.062;4.508;2022-11-12T14:38:45;8.40;;;3.75;;
72728;SDS011;60843;52.062;4.508;2022-11-12T14:41:17;7.05;;;3.67;;
72728;SDS011;60843;52.062;4.508;2022-11-12T14:43:49;6.28;;;3.63;;
72728;SDS011;60843;52.062;4.508;2022-11-12T14:46:26;5.22;;;3.50;;
72728;SDS011;60843;52.062;4.508;2022-11-12T14:52:15;6.68;;;3.72;;
72728;SDS011;60843;52.062;4.508;2022-11-12T14:54:47;5.28;;;3.45;;
72728;SDS011;60843;52.062;4.508;2022-11-12T14:57:32;7.13;;;3.60;;
72728;SDS011;60843;52.062;4.508;2022-11-12T14:59:58;5.50;;;3.65;;
72728;SDS011;60843;52.062;4.508;2022-11-12T15:05:00;6.63;;;4.38;;
72728;SDS011;60843;52.062;4.508;2022-11-12T15:07:32;6.82;;;4.28;;
72728;SDS011;60843;52.062;4.508;2022-11-12T15:09:59;7.90;;;4.43;;
72728;SDS011;60843;52.062;4.508;2022-11-12T15:12:29;7.57;;;4.05;;
72728;SDS011;60843;52.062;4.508;2022-11-12T15:17:46;7.15;;;4.30;;
72728;SDS011;60843;52.062;4.508;2022-11-12T15:20:12;7.25;;;4.38;;
72728;SDS011;60843;52.062;4.508;2022-11-12T15:22:39;6.68;;;4.15;;
72728;SDS011;60843;52.062;4.508;2022-11-12T15:25:08;8.00;;;4.43;;
72728;SDS011;60843;52.062;4.508;2022-11-12T15:27:41;7.22;;;4.40;;
72728;SDS011;60843;52.062;4.508;2022-11-12T15:30:28;6.53;;;4.63;;
72728;SDS011;60843;52.062;4.508;2022-11-12T15:35:38;10.35;;;4.68;;
72728;SDS011;60843;52.062;4.508;2022-11-12T15:38:41;8.10;;;4.85;;
72728;SDS011;60843;52.062;4.508;2022-11-12T15:41:02;11.25;;;5.43;;
72728;SDS011;60843;52.062;4.508;2022-11-12T15:43:29;8.93;;;5.10;;
72728;SDS011;60843;52.062;4.508;2022-11-12T15:45:57;7.47;;;5.53;;
72728;SDS011;60843;52.062;4.508;2022-11-12T15:48:22;9.25;;;6.32;;
72728;SDS011;60843;52.062;4.508;2022-11-12T15:50:48;9.15;;;5.82;;
72728;SDS011;60843;52.062;4.508;2022-11-12T15:53:13;13.20;;;6.85;;
72728;SDS011;60843;52.062;4.508;2022-11-12T15:55:40;8.15;;;5.45;;
72728;SDS011;60843;52.062;4.508;2022-11-12T15:58:06;9.88;;;5.70;;
72728;SDS011;60843;52.062;4.508;2022-11-12T16:00:45;9.57;;;5.18;;
72728;SDS011;60843;52.062;4.508;2022-11-12T16:03:14;9.88;;;5.70;;
72728;SDS011;60843;52.062;4.508;2022-11-12T16:05:41;13.75;;;5.90;;
72728;SDS011;60843;52.062;4.508;2022-11-12T16:08:07;17.10;;;6.50;;
72728;SDS011;60843;52.062;4.508;2022-11-12T16:10:33;11.55;;;5.78;;
72728;SDS011;60843;52.062;4.508;2022-11-12T16:12:59;12.35;;;5.93;;
72728;SDS011;60843;52.062;4.508;2022-11-12T16:15:25;27.35;;;6.97;;
72728;SDS011;60843;52.062;4.508;2022-11-12T16:17:51;13.57;;;7.18;;
72728;SDS011;60843;52.062;4.508;2022-11-12T16:20:18;14.18;;;6.95;;
72728;SDS011;60843;52.062;4.508;2022-11-12T16:22:48;10.35;;;6.78;;
72728;SDS011;60843;52.062;4.508;2022-11-12T16:25:15;15.05;;;7.13;;
72728;SDS011;60843;52.062;4.508;2022-11-12T16:27:41;12.25;;;6.40;;
72728;SDS011;60843;52.062;4.508;2022-11-12T16:30:14;12.80;;;7.72;;
72728;SDS011;60843;52.062;4.508;2022-11-12T16:32:41;12.57;;;8.07;;
72728;SDS011;60843;52.062;4.508;2022-11-12T16:35:07;15.02;;;8.45;;
72728;SDS011;60843;52.062;4.508;2022-11-12T16:37:33;17.52;;;9.32;;
72728;SDS011;60843;52.062;4.508;2022-11-12T16:39:58;13.55;;;8.98;;